Time;durP1;ratioP1;P1;durP2;ratioP2;P2;SDS_P1;SDS_P2;PMS_P1;PMS_P2;Temp;Humidity;BMP_temperature;BMP_pressure;BME280_temperature;BME280_humidity;BME280_pressure;Samples;Min_cycle;Max_cycle;Signal;HPM_P1;HPM_P2
2023/03/22 00:01:52;;;;;;;606.40;27.33;;;;;;;6.28;68.85;99615.19;10348525;28;20518;-62
2023/03/22 00:06:54;;;;;;;541.30;23.40;;;;;;;6.19;68.51;99615.56;10336255;28;20176;-63
2023/03/22 00:11:55;;;;;;;506.98;21.70;;;;;;;6.08;68.87;99614.41;10351794;28;20702;-62
2023/03/22 00:16:57;;;;;;;524.08;25.58;;;;;;;6.04;69.15;99611.09;10352674;28;20053;-63
2023/03/22 00:22:00;;;;;;;617.35;25.35;;;;;;;6.05;69.25;99607.59;10351476;28;20736;-62
2023/03/22 00:27:02;;;;;;;338.00;17.40;;;;;;;6.08;69.05;99601.44;10351710;28;21053;-63
2023/03/22 00:32:04;;;;;;;342.48;17.73;;;;;;;6.06;69.19;99601.47;10350905;28;20052;-63
2023/03/22 00:37:06;;;;;;;642.10;29.95;;;;;;;6.08;68.88;99601.44;10350720;28;20052;-63
2023/03/22 00:42:08;;;;;;;439.08;20.00;;;;;;;5.99;68.76;99597.50;10349938;28;20042;-62
2023/03/22 00:47:11;;;;;;;382.15;17.35;;;;;;;5.99;69.02;99596.66;10353318;28;20050;-62
2023/03/22 00:52:12;;;;;;;731.72;29.52;;;;;;;5.74;68.49;99583.13;10350016;28;20149;-62
2023/03/22 00:57:14;;;;;;;678.63;24.00;;;;;;;5.56;68.88;99587.38;10350333;28;20064;-62
2023/03/22 01:02:16;;;;;;;472.60;16.65;;;;;;;5.49;69.04;99580.81;10348432;28;20053;-62
2023/03/22 01:07:20;;;;;;;705.70;19.10;;;;;;;5.53;69.08;99577.97;10351245;28;20065;-63
2023/03/22 01:12:22;;;;;;;807.50;26.95;;;;;;;5.60;68.93;99568.16;10350793;28;20045;-62
2023/03/22 01:17:23;;;;;;;360.10;13.35;;;;;;;5.54;68.79;99560.66;10348718;28;20485;-62
2023/03/22 01:22:25;;;;;;;690.88;25.55;;;;;;;5.46;68.60;99555.84;10351473;28;20046;-63
2023/03/22 01:27:27;;;;;;;965.10;32.03;;;;;;;5.34;68.76;99555.53;10347259;28;20357;-62
2023/03/22 01:32:29;;;;;;;701.85;24.00;;;;;;;5.40;68.99;99550.06;10366814;28;20053;-62
2023/03/22 01:37:31;;;;;;;762.55;30.65;;;;;;;5.45;68.98;99548.94;10353232;28;20058;-62
2023/03/22 01:42:33;;;;;;;683.88;31.58;;;;;;;5.38;68.97;99541.53;10370372;28;20767;-62
2023/03/22 01:47:35;;;;;;;452.05;17.00;;;;;;;5.39;69.39;99548.41;10345508;28;20054;-62
2023/03/22 01:52:39;;;;;;;596.90;24.67;;;;;;;5.44;69.08;99542.09;10349982;28;20046;-62
2023/03/22 01:57:42;;;;;;;714.28;29.40;;;;;;;5.50;68.51;99533.19;10349097;28;20057;-63
2023/03/22 02:02:47;;;;;;;490.58;16.67;;;;;;;5.40;68.86;99527.59;10347682;28;20064;-62
2023/03/22 02:07:49;;;;;;;768.97;32.75;;;;;;;5.38;69.03;99525.97;10339752;28;20050;-62
2023/03/22 02:13:09;;;;;;;665.15;26.60;;;;;;;5.25;68.96;99533.44;10347429;28;20064;-62
2023/03/22 02:18:39;;;;;;;623.08;22.75;;;;;;;5.30;69.29;99523.72;10349334;28;20057;-62
2023/03/22 02:24:05;;;;;;;585.90;23.95;;;;;;;5.49;69.05;99528.94;10346838;28;20057;-63
2023/03/22 02:29:12;;;;;;;314.58;21.65;;;;;;;5.50;68.48;99520.22;10346747;28;20054;-62
2023/03/22 02:34:19;;;;;;;466.25;30.30;;;;;;;5.43;68.46;99518.84;10348547;28;20049;-62
2023/03/22 02:39:55;;;;;;;456.02;29.80;;;;;;;5.29;68.60;99519.44;10350017;28;20054;-63
2023/03/22 02:45:08;;;;;;;338.58;17.58;;;;;;;5.28;68.46;99514.31;10345063;28;20521;-62
2023/03/22 02:50:16;;;;;;;335.98;14.48;;;;;;;5.26;68.69;99505.78;10348683;28;20370;-62
2023/03/22 02:55:25;;;;;;;356.38;20.83;;;;;;;5.19;68.49;99501.75;10356251;28;20045;-62
2023/03/22 03:00:27;;;;;;;371.05;15.30;;;;;;;4.99;68.47;99492.28;10356157;28;20050;-63
2023/03/22 03:05:32;;;;;;;459.23;12.52;;;;;;;4.80;68.28;99491.41;10363102;28;20050;-62
2023/03/22 03:10:34;;;;;;;789.05;28.02;;;;;;;4.63;68.61;99497.31;10361191;28;20049;-62
2023/03/22 03:15:38;;;;;;;504.95;18.48;;;;;;;4.64;68.77;99495.56;10361057;28;20054;-62
2023/03/22 03:21:01;;;;;;;329.30;15.25;;;;;;;4.63;68.73;99474.00;10362070;28;20038;-62
2023/03/22 03:26:16;;;;;;;420.50;12.85;;;;;;;4.63;68.77;99476.59;10361577;28;20046;-62
2023/03/22 03:31:51;;;;;;;475.80;15.55;;;;;;;4.57;68.35;99476.00;10359886;28;20056;-63
2023/03/22 03:36:59;;;;;;;295.13;12.13;;;;;;;4.25;68.39;99479.94;10351166;28;20050;-61
2023/03/22 03:42:05;;;;;;;334.48;14.68;;;;;;;4.11;68.83;99471.91;10358623;28;20045;-63
2023/03/22 03:47:09;;;;;;;491.23;19.83;;;;;;;4.29;68.99;99463.38;10358202;28;20385;-62
2023/03/22 03:52:13;;;;;;;345.38;14.07;;;;;;;4.43;68.66;99455.88;10374186;28;20573;-62
2023/03/22 03:57:15;;;;;;;429.73;19.45;;;;;;;4.50;68.52;99464.22;10359601;28;20061;-62
2023/03/22 04:02:17;;;;;;;733.38;28.42;;;;;;;4.21;68.29;99470.63;10351928;28;20497;-62
2023/03/22 04:07:18;;;;;;;516.13;23.77;;;;;;;4.02;68.58;99474.88;10355208;28;20042;-62
2023/03/22 04:12:20;;;;;;;853.72;29.02;;;;;;;4.13;69.35;99469.28;10351668;28;20053;-62
2023/03/22 04:17:22;;;;;;;887.38;34.92;;;;;;;4.32;69.14;99465.84;10353702;28;20054;-62
2023/03/22 04:22:25;;;;;;;898.38;34.15;;;;;;;4.42;68.81;99455.94;10339162;28;20100;-63
2023/03/22 04:27:27;;;;;;;791.28;23.20;;;;;;;4.32;68.44;99454.66;10351127;28;20095;-62
2023/03/22 04:32:29;;;;;;;763.95;33.05;;;;;;;4.25;68.72;99461.81;10353756;28;20050;-62
2023/03/22 04:37:30;;;;;;;688.60;31.92;;;;;;;4.20;68.40;99462.91;10351870;28;20053;-62
2023/03/22 04:42:33;;;;;;;382.15;15.27;;;;;;;4.13;68.82;99466.69;10351875;28;20042;-61
2023/03/22 04:47:34;;;;;;;287.33;18.58;;;;;;;4.13;68.78;99472.69;10349984;28;20745;-62
2023/03/22 04:52:36;;;;;;;442.45;21.52;;;;;;;4.11;68.59;99469.31;10352808;28;20088;-63
2023/03/22 04:57:38;;;;;;;592.42;24.88;;;;;;;4.05;68.53;99474.75;10346117;28;20467;-62
2023/03/22 05:02:39;;;;;;;530.90;23.15;;;;;;;4.05;68.94;99474.75;10353281;28;20050;-62
2023/03/22 05:07:42;;;;;;;373.10;17.60;;;;;;;4.03;68.60;99468.78;10351968;28;20199;-63
2023/03/22 05:12:43;;;;;;;285.92;13.68;;;;;;;4.01;68.75;99477.50;10347679;28;20046;-62
2023/03/22 05:17:45;;;;;;;549.17;26.65;;;;;;;4.01;68.26;99478.34;10349947;28;20049;-62
2023/03/22 05:22:49;;;;;;;616.22;22.95;;;;;;;4.01;68.47;99482.69;10349085;28;20046;-62
2023/03/22 05:27:53;;;;;;;327.02;15.57;;;;;;;3.99;68.52;99477.56;10350534;28;20050;-63
2023/03/22 05:33:03;;;;;;;22.52;5.57;;;;;;;3.93;68.22;99461.44;10351736;28;20046;-62
2023/03/22 05:38:05;;;;;;;13.13;7.40;;;;;;;3.85;68.38;99447.09;10354308;28;20048;-64
2023/03/22 05:43:07;;;;;;;84.63;8.23;;;;;;;3.63;68.90;99448.81;10351138;28;20283;-64
2023/03/22 05:48:09;;;;;;;850.50;27.27;;;;;;;3.62;68.98;99454.06;10348056;28;20510;-62
2023/03/22 05:53:10;;;;;;;246.35;11.80;;;;;;;3.56;68.82;99456.84;10348338;28;20050;-63
2023/03/22 05:58:17;;;;;;;886.55;34.13;;;;;;;3.62;69.28;99470.41;10346450;28;20061;-62
2023/03/22 06:03:19;;;;;;;811.22;27.45;;;;;;;3.88;68.88;99478.00;10346972;28;20441;-62
2023/03/22 06:08:22;;;;;;;743.10;29.20;;;;;;;4.19;68.52;99476.78;10349389;28;20057;-65
2023/03/22 06:13:27;;;;;;;1179.40;44.65;;;;;;;4.28;68.24;99474.66;10347694;28;20042;-64
2023/03/22 06:18:30;;;;;;;1209.82;38.83;;;;;;;4.38;68.31;99460.41;10350771;28;20473;-65
2023/03/22 06:23:31;;;;;;;812.67;29.10;;;;;;;4.85;67.93;99468.72;10348497;28;20050;-64
2023/03/22 06:28:33;;;;;;;528.95;38.65;;;;;;;5.00;67.04;99459.44;10361895;28;20417;-65
2023/03/22 06:33:35;;;;;;;122.85;13.40;;;;;;;4.93;67.26;99447.66;10353753;28;20054;-65
2023/03/22 06:38:37;;;;;;;347.55;19.17;;;;;;;5.05;67.52;99465.25;10346530;28;20056;-63
2023/03/22 06:43:39;;;;;;;254.27;16.13;;;;;;;5.44;66.81;99473.81;10345929;28;20057;-65
2023/03/22 06:48:40;;;;;;;279.88;17.73;;;;;;;5.60;66.77;99464.41;10344321;28;20499;-65
2023/03/22 06:53:42;;;;;;;181.90;11.95;;;;;;;5.80;66.52;99466.09;10384965;28;20080;-64
2023/03/22 06:58:44;;;;;;;157.80;20.42;;;;;;;6.15;66.12;99460.00;10346349;28;20045;-65
2023/03/22 07:03:45;;;;;;;436.83;18.05;;;;;;;6.51;65.46;99452.19;10345498;28;20525;-65
2023/03/22 07:08:47;;;;;;;315.58;14.65;;;;;;;6.61;65.47;99456.84;10343954;28;20129;-65
2023/03/22 07:13:53;;;;;;;103.55;13.77;;;;;;;6.96;65.50;99463.63;10348222;28;20050;-62
2023/03/22 07:18:57;;;;;;;76.30;12.95;;;;;;;7.56;64.82;99451.72;10342628;28;20058;-64
2023/03/22 07:24:00;;;;;;;138.52;24.60;;;;;;;7.81;64.32;99449.41;10360037;28;20558;-65
2023/03/22 07:29:02;;;;;;;44.00;21.15;;;;;;;7.95;64.39;99446.91;10347291;28;20056;-65
2023/03/22 07:34:04;;;;;;;173.43;16.27;;;;;;;7.96;64.75;99439.91;10362305;28;20133;-66
2023/03/22 07:39:06;;;;;;;18.95;12.20;;;;;;;8.48;64.13;99440.38;10327722;28;20050;-65
2023/03/22 07:44:09;;;;;;;18.42;13.50;;;;;;;8.42;64.39;99443.34;10348144;28;20056;-65
2023/03/22 07:49:21;;;;;;;48.72;22.35;;;;;;;8.82;64.07;99440.88;10358712;28;20045;-65
2023/03/22 07:54:25;;;;;;;21.15;13.88;;;;;;;8.68;64.01;99430.44;10352951;28;20056;-64
2023/03/22 07:59:34;;;;;;;;;;;;;;;8.23;64.69;99434.91;10353437;28;20053;-65
2023/03/22 08:04:39;;;;;;;18.95;16.20;;;;;;;8.33;65.04;99430.84;10350936;28;19929;-64
2023/03/22 08:09:41;;;;;;;17.85;13.10;;;;;;;8.96;65.30;99424.41;10350252;28;20056;-65
2023/03/22 08:14:49;;;;;;;16.75;11.20;;;;;;;9.59;64.63;99427.38;10349884;28;20052;-69
2023/03/22 08:19:53;;;;;;;13.73;9.10;;;;;;;9.82;64.18;99420.72;10338471;28;20084;-69
2023/03/22 08:24:55;;;;;;;10.40;7.57;;;;;;;10.52;63.39;99401.22;10349840;28;20052;-69
2023/03/22 08:29:57;;;;;;;10.70;6.45;;;;;;;11.03;61.84;99406.28;10351260;28;20172;-69
2023/03/22 08:34:59;;;;;;;9.13;5.20;;;;;;;11.06;61.44;99390.41;10350855;28;20049;-69
2023/03/22 08:40:00;;;;;;;9.65;4.50;;;;;;;11.17;61.14;99382.63;10347719;28;20781;-69
2023/03/22 08:45:03;;;;;;;10.23;3.95;;;;;;;11.80;60.42;99379.81;10350248;28;20070;-69
2023/03/22 08:50:05;;;;;;;8.80;3.40;;;;;;;12.41;58.50;99357.72;10351882;28;20040;-68
2023/03/22 08:55:08;;;;;;;6.93;3.25;;;;;;;13.14;57.08;99358.09;10349566;28;20506;-69
2023/03/22 09:00:12;;;;;;;7.18;2.75;;;;;;;13.29;55.67;99350.78;10349239;28;20053;-69
2023/03/22 09:05:14;;;;;;;6.50;2.40;;;;;;;13.30;55.64;99348.03;10349554;28;20049;-69
2023/03/22 09:10:16;;;;;;;8.10;2.40;;;;;;;13.04;54.84;99346.66;10350406;28;20053;-69
2023/03/22 09:15:17;;;;;;;4.25;1.80;;;;;;;12.75;55.33;99340.22;10349789;28;20046;-69
2023/03/22 09:20:24;;;;;;;6.70;1.80;;;;;;;12.67;55.34;99340.81;10359205;28;20057;-68
2023/03/22 09:25:25;;;;;;;5.72;1.80;;;;;;;13.07;54.14;99330.66;10346897;28;20730;-67
2023/03/22 09:30:27;;;;;;;7.82;1.90;;;;;;;13.07;53.42;99325.41;10338844;28;20618;-67
2023/03/22 09:35:30;;;;;;;10.85;2.00;;;;;;;13.08;52.99;99332.31;10350040;28;20427;-67
2023/03/22 09:40:34;;;;;;;4.85;1.40;;;;;;;13.13;53.16;99331.97;10344426;28;20049;-67
2023/03/22 09:45:47;;;;;;;6.68;1.75;;;;;;;13.63;50.14;99344.50;10345996;28;20046;-67
2023/03/22 09:50:52;;;;;;;7.32;1.63;;;;;;;13.22;51.19;99339.94;10338482;28;20034;-66
2023/03/22 09:56:12;;;;;;;6.47;1.45;;;;;;;13.13;49.88;99339.84;10347958;28;20457;-67
2023/03/22 10:01:20;;;;;;;4.07;1.33;;;;;;;13.53;49.89;99338.34;10342035;28;20409;-67
2023/03/22 10:06:25;;;;;;;4.38;1.23;;;;;;;14.12;48.96;99330.78;10345927;28;20046;-66
2023/03/22 10:11:48;;;;;;;4.35;1.20;;;;;;;14.39;49.47;99329.28;10345924;28;20125;-67
2023/03/22 10:16:52;;;;;;;4.55;1.20;;;;;;;14.03;48.01;99331.53;10353066;28;20096;-67
2023/03/22 10:22:00;;;;;;;4.43;1.13;;;;;;;13.97;47.97;99327.63;10349210;28;20057;-67
2023/03/22 10:27:03;;;;;;;3.75;1.20;;;;;;;13.93;47.92;99320.97;10336083;28;20446;-66
2023/03/22 10:32:16;;;;;;;4.45;1.27;;;;;;;13.93;47.24;99323.59;10346207;28;20045;-67
2023/03/22 10:37:30;;;;;;;4.45;1.35;;;;;;;14.01;46.72;99329.03;10343450;28;20466;-67
2023/03/22 10:42:36;;;;;;;5.28;1.20;;;;;;;14.02;45.97;99322.84;10342509;28;20100;-66
2023/03/22 10:47:45;;;;;;;3.28;1.25;;;;;;;14.32;46.37;99303.63;10338807;28;20680;-67
2023/03/22 10:52:53;;;;;;;3.80;1.20;;;;;;;14.42;45.90;99304.53;10386824;28;20041;-67
2023/03/22 10:58:11;;;;;;;3.25;1.20;;;;;;;14.37;44.88;99298.84;10385116;28;20091;-67
2023/03/22 11:03:26;;;;;;;3.38;1.15;;;;;;;14.49;44.04;99300.44;10383874;28;20520;-67
2023/03/22 11:08:29;;;;;;;3.92;1.50;;;;;;;14.48;45.06;99304.00;10382153;28;20061;-67
2023/03/22 11:13:34;;;;;;;3.60;1.10;;;;;;;14.57;44.37;99306.69;10393050;28;20362;-67
2023/03/22 11:18:35;;;;;;;3.35;1.30;;;;;;;14.74;44.17;99301.78;10390663;28;20045;-67
2023/03/22 11:23:41;;;;;;;4.15;1.20;;;;;;;14.91;43.87;99302.00;10393952;28;20052;-66
2023/03/22 11:28:49;;;;;;;6.63;1.30;;;;;;;15.06;43.48;99294.53;10391981;28;20061;-68
2023/03/22 11:33:58;;;;;;;4.03;1.42;;;;;;;15.13;43.44;99288.59;10378783;28;20064;-68
2023/03/22 11:39:05;;;;;;;3.53;1.27;;;;;;;15.37;43.42;99290.84;10390595;28;20060;-67
2023/03/22 11:44:11;;;;;;;8.23;1.40;;;;;;;15.54;42.13;99289.34;10391090;28;20041;-68
2023/03/22 11:49:16;;;;;;;3.20;1.50;;;;;;;15.50;42.38;99282.69;10389695;28;20553;-67
2023/03/22 11:54:34;;;;;;;3.65;1.40;;;;;;;15.24;42.26;99292.91;10390798;28;20049;-68
2023/03/22 11:59:44;;;;;;;3.97;1.35;;;;;;;15.34;42.35;99284.06;10388600;28;20068;-68
2023/03/22 12:04:48;;;;;;;3.90;1.40;;;;;;;15.49;42.70;99283.66;10391215;28;20505;-68
2023/03/22 12:10:37;;;;;;;3.60;1.33;;;;;;;15.40;42.13;99298.47;10382742;28;20053;-67
2023/03/22 12:15:47;;;;;;;3.97;1.30;;;;;;;15.31;40.90;99270.31;10331642;28;20045;-67
2023/03/22 12:20:49;;;;;;;;;;;;;;;15.07;41.80;99273.34;10383307;28;20055;-67
2023/03/22 12:25:58;;;;;;;3.67;1.30;;;;;;;15.72;41.58;99263.97;10388823;28;19936;-67
2023/03/22 12:31:02;;;;;;;3.05;1.33;;;;;;;15.98;41.34;99257.13;10388009;28;20053;-68
2023/03/22 12:36:06;;;;;;;2.70;1.30;;;;;;;16.33;41.01;99253.84;10386139;28;20060;-67
2023/03/22 12:41:15;;;;;;;2.95;1.35;;;;;;;16.35;40.98;99251.88;10381539;28;20056;-67
2023/03/22 12:46:30;;;;;;;3.55;1.30;;;;;;;15.88;40.88;99243.97;10388770;28;20045;-67
2023/03/22 12:51:32;;;;;;;3.58;1.38;;;;;;;15.68;40.73;99238.84;10390663;28;20222;-66
2023/03/22 12:56:44;;;;;;;4.85;1.40;;;;;;;15.57;40.44;99239.81;10385302;28;20049;-67
2023/03/22 13:01:58;;;;;;;4.43;1.40;;;;;;;15.56;40.99;99235.53;10392370;28;20040;-67
2023/03/22 13:07:09;;;;;;;3.47;1.10;;;;;;;15.35;40.02;99234.81;10389201;28;20079;-67
2023/03/22 13:12:16;;;;;;;3.40;1.25;;;;;;;15.61;38.74;99214.88;10389291;28;20056;-67
2023/03/22 13:17:21;;;;;;;3.97;1.13;;;;;;;15.56;38.85;99209.19;10385393;28;20057;-67
2023/03/22 13:22:35;;;;;;;3.42;1.10;;;;;;;15.46;38.01;99210.13;10387898;28;20064;-68
2023/03/22 13:27:59;;;;;;;6.30;1.23;;;;;;;15.26;38.09;99204.88;10384927;28;20535;-68
2023/03/22 13:33:08;;;;;;;2.67;1.00;;;;;;;15.20;38.57;99225.66;10382956;28;20050;-67
2023/03/22 13:38:23;;;;;;;3.50;1.25;;;;;;;15.28;39.37;99221.38;10371575;28;20134;-67
2023/03/22 13:43:30;;;;;;;6.22;1.30;;;;;;;15.27;39.54;99237.31;10381877;28;20049;-67
2023/03/22 13:48:46;;;;;;;4.80;1.40;;;;;;;15.03;39.40;99231.59;10385092;28;20052;-66
2023/03/22 13:54:07;;;;;;;3.08;1.30;;;;;;;15.12;39.81;99213.16;10386206;28;20054;-67
2023/03/22 13:59:11;;;;;;;;;;;;;;;14.64;40.85;99220.16;10384117;28;20402;-67
2023/03/22 14:04:21;;;;;;;3.65;1.20;;;;;;;14.91;41.36;99209.00;10387105;28;20337;-67
2023/03/22 14:09:29;;;;;;;4.07;1.30;;;;;;;14.65;41.38;99218.38;10383347;28;20060;-67
2023/03/22 14:14:38;;;;;;;3.80;1.42;;;;;;;14.76;41.65;99218.25;10385711;28;20720;-67
2023/03/22 14:19:41;;;;;;;2.50;1.10;;;;;;;14.95;41.83;99224.38;10380777;28;20136;-67
2023/03/22 14:24:45;;;;;;;2.97;1.30;;;;;;;15.05;41.71;99237.56;10358884;28;20055;-67
2023/03/22 14:29:47;;;;;;;4.82;1.40;;;;;;;15.20;41.24;99220.41;10377132;28;20608;-67
2023/03/22 14:34:51;;;;;;;2.75;1.00;;;;;;;15.25;41.44;99210.28;10381083;28;20558;-67
2023/03/22 14:39:52;;;;;;;3.42;1.58;;;;;;;15.40;41.69;99201.00;10382734;28;20040;-67
2023/03/22 14:44:58;;;;;;;4.30;1.10;;;;;;;15.64;41.26;99216.38;10383414;28;20763;-66
2023/03/22 14:50:06;;;;;;;3.75;1.20;;;;;;;15.69;40.88;99212.38;10394172;28;20538;-66
2023/03/22 14:55:14;;;;;;;4.93;1.58;;;;;;;15.60;41.34;99213.22;10394958;28;20056;-67
2023/03/22 15:00:18;;;;;;;3.20;1.33;;;;;;;15.38;41.33;99213.47;10364143;28;20427;-67
2023/03/22 15:05:22;;;;;;;4.93;1.25;;;;;;;15.56;41.47;99187.25;10391027;28;20057;-67
2023/03/22 15:10:27;;;;;;;4.60;1.40;;;;;;;15.51;40.86;99182.41;10388105;28;20081;-67
2023/03/22 15:15:32;;;;;;;4.70;1.58;;;;;;;15.36;41.21;99160.09;10390560;28;20368;-67
2023/03/22 15:20:35;;;;;;;3.03;1.30;;;;;;;15.27;41.60;99159.13;10394145;28;20061;-67
2023/03/22 15:25:36;;;;;;;4.32;1.35;;;;;;;15.29;41.59;99170.34;10398444;28;20054;-67
2023/03/22 15:30:42;;;;;;;3.80;1.33;;;;;;;15.29;41.32;99172.13;10388575;28;20053;-67
2023/03/22 15:35:43;;;;;;;3.47;1.25;;;;;;;15.06;41.23;99182.13;10397114;28;20107;-67
2023/03/22 15:40:44;;;;;;;3.30;1.00;;;;;;;14.96;41.32;99189.19;10395710;28;20568;-67
2023/03/22 15:46:07;;;;;;;4.70;1.27;;;;;;;14.82;41.58;99186.94;10370960;28;20618;-67
2023/03/22 15:51:13;;;;;;;3.47;1.30;;;;;;;14.79;42.03;99192.50;10388741;28;20095;-68
2023/03/22 15:56:30;;;;;;;3.10;1.20;;;;;;;14.83;41.62;99187.78;10381132;28;20110;-67
2023/03/22 16:01:44;;;;;;;3.30;1.13;;;;;;;14.85;42.01;99167.41;10387835;28;20108;-68
2023/03/22 16:06:45;;;;;;;5.15;1.30;;;;;;;14.88;42.25;99164.53;10402657;28;20061;-68
2023/03/22 16:11:46;;;;;;;3.97;1.35;;;;;;;14.96;42.45;99173.38;10395811;28;20472;-67
2023/03/22 16:16:47;;;;;;;7.55;3.35;;;;;;;15.02;42.26;99169.38;10385333;28;20053;-67
2023/03/22 16:21:50;;;;;;;2.88;1.55;;;;;;;14.94;42.74;99177.94;10386993;28;20049;-67
2023/03/22 16:26:51;;;;;;;4.22;1.70;;;;;;;14.80;42.47;99188.88;10410223;28;20370;-67
2023/03/22 16:31:52;;;;;;;4.20;2.40;;;;;;;14.70;43.11;99185.41;10387388;28;20056;-67
2023/03/22 16:36:53;;;;;;;5.03;1.98;;;;;;;14.75;43.28;99187.63;10386159;28;20100;-67
2023/03/22 16:41:54;;;;;;;6.60;1.40;;;;;;;14.74;44.13;99183.31;10378152;28;20060;-67
2023/03/22 16:46:55;;;;;;;9.88;7.60;;;;;;;14.70;43.55;99190.66;10397395;28;20349;-66
2023/03/22 16:51:55;;;;;;;5.88;2.10;;;;;;;14.67;43.49;99192.75;10415410;28;20125;-66
2023/03/22 16:56:56;;;;;;;3.72;1.40;;;;;;;14.58;43.92;99189.13;10420286;28;20148;-66
2023/03/22 17:01:56;;;;;;;4.22;1.60;;;;;;;14.59;44.27;99185.53;10387180;28;20045;-67
2023/03/22 17:06:57;;;;;;;3.10;1.33;;;;;;;14.43;44.00;99191.25;10361168;28;20241;-66
2023/03/22 17:11:57;;;;;;;2.78;1.40;;;;;;;14.43;43.91;99187.81;10385674;28;20511;-66
2023/03/22 17:16:58;;;;;;;4.45;1.50;;;;;;;14.33;45.04;99179.88;10357996;28;20061;-67
2023/03/22 17:21:58;;;;;;;3.20;1.50;;;;;;;14.19;45.38;99174.97;10385668;28;20053;-67
2023/03/22 17:26:59;;;;;;;5.07;1.48;;;;;;;14.03;45.28;99174.63;10374719;28;20394;-66
2023/03/22 17:32:02;;;;;;;5.35;1.30;;;;;;;14.02;45.57;99177.41;10391012;28;20348;-66
2023/03/22 17:37:02;;;;;;;4.55;1.25;;;;;;;14.00;46.30;99174.91;10386595;28;20644;-66
2023/03/22 17:42:10;;;;;;;6.00;1.50;;;;;;;13.92;46.83;99174.72;10390058;28;20268;-68
2023/03/22 17:47:11;;;;;;;4.95;2.03;;;;;;;13.89;46.91;99177.59;10382335;28;20060;-66
2023/03/22 17:52:14;;;;;;;3.90;1.50;;;;;;;13.84;46.96;99176.34;10382162;28;20052;-66
2023/03/22 17:57:15;;;;;;;5.28;2.10;;;;;;;13.77;45.93;99171.59;10382813;28;20726;-66
2023/03/22 18:02:17;;;;;;;3.60;1.58;;;;;;;13.67;45.32;99177.75;10382958;28;20103;-66
2023/03/22 18:07:20;;;;;;;5.18;1.60;;;;;;;13.60;44.89;99176.59;10387171;28;20053;-66
2023/03/22 18:12:21;;;;;;;4.63;1.30;;;;;;;13.64;44.77;99178.00;10366250;28;20049;-66
2023/03/22 18:17:21;;;;;;;3.63;1.40;;;;;;;13.59;44.70;99175.78;10415902;28;20111;-66
2023/03/22 18:22:22;;;;;;;2.80;1.20;;;;;;;13.51;44.42;99172.97;10393191;28;20167;-66
2023/03/22 18:27:23;;;;;;;3.35;1.23;;;;;;;13.56;43.72;99172.56;10389607;28;20049;-66
2023/03/22 18:32:24;;;;;;;3.10;1.42;;;;;;;13.50;43.82;99170.44;10383577;28;20049;-66
2023/03/22 18:37:25;;;;;;;4.53;1.40;;;;;;;13.42;43.63;99162.34;10387337;28;20057;-66
2023/03/22 18:42:26;;;;;;;3.20;1.30;;;;;;;13.43;43.68;99167.50;10387017;28;20063;-67
2023/03/22 18:47:27;;;;;;;3.95;1.60;;;;;;;13.43;43.71;99148.31;10391399;28;20057;-66
2023/03/22 18:52:27;;;;;;;5.93;1.98;;;;;;;13.45;44.27;99141.13;10394911;28;20078;-67
2023/03/22 18:57:29;;;;;;;4.75;2.67;;;;;;;13.39;43.85;99147.66;10382017;28;20187;-62
2023/03/22 19:02:29;;;;;;;6.35;2.80;;;;;;;13.34;43.87;99128.00;10385567;28;20474;-62
2023/03/22 19:07:31;;;;;;;5.32;3.28;;;;;;;13.39;43.96;99142.41;10400825;28;20667;-62
2023/03/22 19:12:33;;;;;;;4.25;2.30;;;;;;;13.38;44.02;99132.03;10385852;28;20087;-62
2023/03/22 19:17:34;;;;;;;6.15;2.10;;;;;;;13.33;44.32;99139.50;10387639;28;20099;-62
2023/03/22 19:22:36;;;;;;;5.25;2.20;;;;;;;13.25;44.20;99132.22;10399981;28;20045;-62
2023/03/22 19:27:36;;;;;;;10.45;5.00;;;;;;;13.27;44.38;99132.13;10396071;28;20271;-62
2023/03/22 19:32:37;;;;;;;7.78;4.05;;;;;;;13.32;44.60;99137.81;10369373;28;20529;-62
2023/03/22 19:37:38;;;;;;;8.05;4.15;;;;;;;13.27;44.85;99143.44;10389893;28;20164;-62
2023/03/22 19:42:39;;;;;;;4.72;2.20;;;;;;;13.32;44.76;99140.44;10391689;28;20464;-62
2023/03/22 19:47:40;;;;;;;2.83;1.30;;;;;;;13.26;44.87;99141.78;10395383;28;20073;-62
2023/03/22 19:52:42;;;;;;;3.88;1.40;;;;;;;13.23;44.72;99142.03;10390687;28;20044;-63
2023/03/22 19:57:44;;;;;;;4.07;1.40;;;;;;;13.25;45.21;99141.94;10373041;28;20540;-62
2023/03/22 20:02:44;;;;;;;2.92;1.20;;;;;;;13.25;44.80;99128.78;10407105;28;20053;-62
2023/03/22 20:07:45;;;;;;;2.78;1.40;;;;;;;13.25;44.98;99126.16;10397265;28;20477;-62
2023/03/22 20:12:46;;;;;;;3.35;1.35;;;;;;;13.23;45.05;99121.03;10374049;28;20048;-61
2023/03/22 20:17:46;;;;;;;2.65;1.30;;;;;;;13.22;44.99;99113.28;10397164;28;20053;-62
2023/03/22 20:22:52;;;;;;;3.88;1.50;;;;;;;13.20;45.30;99109.94;10430338;28;20057;-62
2023/03/22 20:27:54;;;;;;;5.28;1.50;;;;;;;13.21;45.05;99098.50;10372241;28;20152;-63
2023/03/22 20:32:55;;;;;;;3.85;1.30;;;;;;;13.23;45.31;99089.50;10395128;28;20489;-62
2023/03/22 20:37:55;;;;;;;4.28;1.48;;;;;;;13.16;45.78;99087.53;10401084;28;20092;-62
2023/03/22 20:42:56;;;;;;;2.78;1.30;;;;;;;13.14;45.50;99095.56;10393786;28;20093;-62
2023/03/22 20:47:56;;;;;;;1.98;1.15;;;;;;;13.13;45.63;99080.75;10391353;28;20495;-62
2023/03/22 20:52:57;;;;;;;4.50;1.33;;;;;;;13.23;45.73;99086.88;10389530;28;20110;-62
2023/03/22 20:57:57;;;;;;;4.38;1.30;;;;;;;13.27;45.45;99076.97;10388611;28;20049;-62
2023/03/22 21:02:58;;;;;;;4.57;2.05;;;;;;;13.29;45.76;99080.31;10391039;28;20119;-62
2023/03/22 21:07:59;;;;;;;3.97;1.50;;;;;;;13.29;45.89;99078.50;10387449;28;20053;-62
2023/03/22 21:13:00;;;;;;;3.72;1.30;;;;;;;13.29;45.69;99082.94;10392139;28;20610;-62
2023/03/22 21:18:00;;;;;;;5.75;1.50;;;;;;;13.28;45.83;99076.84;10391910;28;20053;-61
2023/03/22 21:23:01;;;;;;;3.38;1.58;;;;;;;13.29;46.23;99082.94;10390508;28;20168;-62
2023/03/22 21:28:02;;;;;;;3.45;1.40;;;;;;;13.22;46.01;99087.03;10387990;28;20045;-61
2023/03/22 21:33:02;;;;;;;4.38;1.50;;;;;;;13.25;45.86;99065.78;10382583;28;20492;-61
2023/03/22 21:38:08;;;;;;;4.72;1.40;;;;;;;13.25;46.08;99071.84;10388593;28;20056;-62
2023/03/22 21:43:09;;;;;;;5.93;1.60;;;;;;;13.18;46.07;99065.44;10390914;28;20053;-62
2023/03/22 21:48:12;;;;;;;4.85;1.50;;;;;;;13.18;45.79;99073.34;10387747;28;20077;-61
2023/03/22 21:53:14;;;;;;;4.43;1.50;;;;;;;13.24;45.52;99069.34;10388211;28;20068;-61
2023/03/22 21:58:20;;;;;;;3.75;1.50;;;;;;;13.23;46.14;99065.88;10377081;28;20056;-62
2023/03/22 22:03:21;;;;;;;2.45;1.27;;;;;;;13.19;45.40;99055.78;10391216;28;20529;-61
2023/03/22 22:08:23;;;;;;;4.97;1.50;;;;;;;13.33;45.45;99050.22;10389433;28;20325;-61
2023/03/22 22:13:25;;;;;;;4.15;1.40;;;;;;;13.33;45.32;99042.31;10389120;28;20084;-61
2023/03/22 22:18:25;;;;;;;5.40;1.60;;;;;;;13.36;45.29;99037.63;10389161;28;20049;-61
2023/03/22 22:23:29;;;;;;;2.42;1.30;;;;;;;13.33;45.41;99026.56;10380291;28;20045;-61
2023/03/22 22:28:30;;;;;;;4.18;1.60;;;;;;;13.29;45.72;99017.28;10392111;28;20206;-61
2023/03/22 22:33:31;;;;;;;3.25;1.50;;;;;;;13.31;44.53;99026.69;10391426;28;20041;-62
2023/03/22 22:38:31;;;;;;;3.25;1.30;;;;;;;13.29;44.96;99010.22;10385469;28;20088;-62
2023/03/22 22:43:32;;;;;;;2.30;1.35;;;;;;;13.25;44.95;99014.06;10389822;28;20056;-62
2023/03/22 22:48:33;;;;;;;4.25;1.60;;;;;;;13.20;45.42;99000.53;10387863;28;20599;-61
2023/03/22 22:53:35;;;;;;;4.32;1.70;;;;;;;13.15;45.33;98999.25;10389306;28;20082;-62
2023/03/22 22:58:35;;;;;;;3.63;1.70;;;;;;;13.09;45.30;98989.28;10388288;28;20318;-62
2023/03/22 23:03:37;;;;;;;5.75;1.60;;;;;;;13.10;45.25;98976.00;10368047;28;20631;-62
2023/03/22 23:08:40;;;;;;;3.75;1.60;;;;;;;13.11;45.08;98974.22;10394794;28;20132;-61
2023/03/22 23:13:45;;;;;;;2.33;1.23;;;;;;;13.11;44.73;98980.28;10397203;28;20042;-60
2023/03/22 23:18:53;;;;;;;3.42;1.40;;;;;;;13.09;44.70;98974.34;10398705;28;20050;-63
2023/03/22 23:23:53;;;;;;;2.65;1.30;;;;;;;13.12;44.54;98965.38;10397377;28;20056;-61